sensor_id;sensor_type;location;lat;lon;timestamp;P1;durP1;ratioP1;P2;durP2;ratioP2
78169;SDS011;67412;49.892;14.490;2023-07-20T00:01:14;4.75;;;1.52;;
78169;SDS011;67412;49.892;14.490;2023-07-20T00:03:40;4.57;;;1.50;;
78169;SDS011;67412;49.892;14.490;2023-07-20T00:06:06;6.57;;;1.80;;
78169;SDS011;67412;49.892;14.490;2023-07-20T00:08:31;5.07;;;1.58;;
78169;SDS011;67412;49.892;14.490;2023-07-20T00:10:57;5.70;;;1.42;;
78169;SDS011;67412;49.892;14.490;2023-07-20T00:13:22;3.78;;;1.60;;
78169;SDS011;67412;49.892;14.490;2023-07-20T00:15:47;5.82;;;1.77;;
78169;SDS011;67412;49.892;14.490;2023-07-20T00:18:13;6.93;;;2.15;;
78169;SDS011;67412;49.892;14.490;2023-07-20T00:20:39;4.68;;;1.48;;
78169;SDS011;67412;49.892;14.490;2023-07-20T00:23:04;3.63;;;1.63;;
78169;SDS011;67412;49.892;14.490;2023-07-20T00:25:30;5.20;;;1.58;;
78169;SDS011;67412;49.892;14.490;2023-07-20T00:27:56;5.13;;;1.58;;
78169;SDS011;67412;49.892;14.490;2023-07-20T00:30:21;4.00;;;1.35;;
78169;SDS011;67412;49.892;14.490;2023-07-20T00:32:46;5.72;;;1.70;;
78169;SDS011;67412;49.892;14.490;2023-07-20T00:35:12;4.43;;;1.50;;
78169;SDS011;67412;49.892;14.490;2023-07-20T00:37:38;4.32;;;1.50;;
78169;SDS011;67412;49.892;14.490;2023-07-20T00:42:29;5.30;;;1.70;;
78169;SDS011;67412;49.892;14.490;2023-07-20T00:44:55;3.88;;;1.50;;
78169;SDS011;67412;49.892;14.490;2023-07-20T00:47:20;4.82;;;1.60;;
78169;SDS011;67412;49.892;14.490;2023-07-20T00:49:45;5.32;;;1.63;;
78169;SDS011;67412;49.892;14.490;2023-07-20T00:52:11;4.47;;;1.50;;
78169;SDS011;67412;49.892;14.490;2023-07-20T00:54:39;4.68;;;1.70;;
78169;SDS011;67412;49.892;14.490;2023-07-20T00:57:05;5.45;;;1.50;;
78169;SDS011;67412;49.892;14.490;2023-07-20T00:59:33;4.00;;;1.40;;
78169;SDS011;67412;49.892;14.490;2023-07-20T01:02:00;5.03;;;1.60;;
78169;SDS011;67412;49.892;14.490;2023-07-20T01:04:25;5.18;;;2.00;;
78169;SDS011;67412;49.892;14.490;2023-07-20T01:09:33;5.85;;;1.50;;
78169;SDS011;67412;49.892;14.490;2023-07-20T01:12:06;3.60;;;1.85;;
78169;SDS011;67412;49.892;14.490;2023-07-20T01:14:36;6.85;;;1.83;;
78169;SDS011;67412;49.892;14.490;2023-07-20T01:17:03;4.75;;;1.55;;
78169;SDS011;67412;49.892;14.490;2023-07-20T01:19:29;4.30;;;1.67;;
78169;SDS011;67412;49.892;14.490;2023-07-20T01:21:59;2.95;;;1.42;;
78169;SDS011;67412;49.892;14.490;2023-07-20T01:33:15;4.57;;;1.70;;
78169;SDS011;67412;49.892;14.490;2023-07-20T01:35:42;5.00;;;1.90;;
78169;SDS011;67412;49.892;14.490;2023-07-20T01:38:10;6.00;;;1.90;;
78169;SDS011;67412;49.892;14.490;2023-07-20T01:40:38;5.13;;;1.90;;
78169;SDS011;67412;49.892;14.490;2023-07-20T01:43:04;6.82;;;1.75;;
78169;SDS011;67412;49.892;14.490;2023-07-20T01:45:29;4.57;;;1.65;;
78169;SDS011;67412;49.892;14.490;2023-07-20T01:47:54;3.80;;;1.70;;
78169;SDS011;67412;49.892;14.490;2023-07-20T01:50:20;4.68;;;1.42;;
78169;SDS011;67412;49.892;14.490;2023-07-20T01:52:45;5.10;;;1.80;;
78169;SDS011;67412;49.892;14.490;2023-07-20T01:55:10;5.40;;;1.77;;
78169;SDS011;67412;49.892;14.490;2023-07-20T01:57:36;5.57;;;2.03;;
78169;SDS011;67412;49.892;14.490;2023-07-20T02:00:01;5.55;;;1.65;;
78169;SDS011;67412;49.892;14.490;2023-07-20T02:02:27;5.00;;;1.88;;
78169;SDS011;67412;49.892;14.490;2023-07-20T02:04:55;7.43;;;1.90;;
78169;SDS011;67412;49.892;14.490;2023-07-20T02:07:20;5.50;;;2.10;;
78169;SDS011;67412;49.892;14.490;2023-07-20T02:09:46;5.30;;;1.90;;
78169;SDS011;67412;49.892;14.490;2023-07-20T02:12:11;5.47;;;1.93;;
78169;SDS011;67412;49.892;14.490;2023-07-20T02:14:36;4.93;;;1.70;;
78169;SDS011;67412;49.892;14.490;2023-07-20T02:17:02;4.30;;;1.80;;
78169;SDS011;67412;49.892;14.490;2023-07-20T02:19:28;6.10;;;1.90;;
78169;SDS011;67412;49.892;14.490;2023-07-20T02:21:54;7.28;;;2.05;;
78169;SDS011;67412;49.892;14.490;2023-07-20T02:24:20;5.38;;;1.77;;
78169;SDS011;67412;49.892;14.490;2023-07-20T02:26:45;5.25;;;2.10;;
78169;SDS011;67412;49.892;14.490;2023-07-20T02:29:10;5.82;;;2.13;;
78169;SDS011;67412;49.892;14.490;2023-07-20T02:31:38;5.15;;;1.88;;
78169;SDS011;67412;49.892;14.490;2023-07-20T02:34:05;6.35;;;2.00;;
78169;SDS011;67412;49.892;14.490;2023-07-20T02:36:30;5.55;;;2.00;;
78169;SDS011;67412;49.892;14.490;2023-07-20T02:38:57;6.50;;;2.25;;
78169;SDS011;67412;49.892;14.490;2023-07-20T02:41:23;5.00;;;1.83;;
78169;SDS011;67412;49.892;14.490;2023-07-20T02:43:48;6.95;;;1.90;;
78169;SDS011;67412;49.892;14.490;2023-07-20T02:46:14;4.47;;;1.70;;
78169;SDS011;67412;49.892;14.490;2023-07-20T02:48:40;5.82;;;1.90;;
78169;SDS011;67412;49.892;14.490;2023-07-20T02:51:05;6.70;;;1.90;;
78169;SDS011;67412;49.892;14.490;2023-07-20T02:53:32;6.68;;;1.73;;
78169;SDS011;67412;49.892;14.490;2023-07-20T02:55:58;4.30;;;1.83;;
78169;SDS011;67412;49.892;14.490;2023-07-20T02:58:23;5.78;;;1.98;;
78169;SDS011;67412;49.892;14.490;2023-07-20T03:00:48;4.60;;;2.40;;
78169;SDS011;67412;49.892;14.490;2023-07-20T03:03:13;4.73;;;1.73;;
78169;SDS011;67412;49.892;14.490;2023-07-20T03:05:40;6.18;;;1.92;;
78169;SDS011;67412;49.892;14.490;2023-07-20T03:08:06;5.35;;;1.80;;
78169;SDS011;67412;49.892;14.490;2023-07-20T03:10:31;5.40;;;2.00;;
78169;SDS011;67412;49.892;14.490;2023-07-20T03:12:57;4.97;;;1.77;;
78169;SDS011;67412;49.892;14.490;2023-07-20T03:15:23;3.83;;;1.42;;
78169;SDS011;67412;49.892;14.490;2023-07-20T03:17:48;3.97;;;1.80;;
78169;SDS011;67412;49.892;14.490;2023-07-20T03:20:13;4.35;;;1.70;;
78169;SDS011;67412;49.892;14.490;2023-07-20T03:22:39;6.78;;;1.80;;
78169;SDS011;67412;49.892;14.490;2023-07-20T03:25:04;5.47;;;1.52;;
78169;SDS011;67412;49.892;14.490;2023-07-20T03:27:30;6.45;;;1.75;;
78169;SDS011;67412;49.892;14.490;2023-07-20T03:29:55;6.00;;;1.95;;
78169;SDS011;67412;49.892;14.490;2023-07-20T03:32:20;5.20;;;1.95;;
78169;SDS011;67412;49.892;14.490;2023-07-20T03:34:46;4.55;;;1.70;;
78169;SDS011;67412;49.892;14.490;2023-07-20T03:37:12;6.22;;;1.65;;
78169;SDS011;67412;49.892;14.490;2023-07-20T03:39:38;5.40;;;1.80;;
78169;SDS011;67412;49.892;14.490;2023-07-20T03:42:03;4.20;;;1.83;;
78169;SDS011;67412;49.892;14.490;2023-07-20T03:44:29;5.53;;;1.90;;
78169;SDS011;67412;49.892;14.490;2023-07-20T03:46:55;6.60;;;2.17;;
78169;SDS011;67412;49.892;14.490;2023-07-20T03:49:20;5.50;;;1.80;;
78169;SDS011;67412;49.892;14.490;2023-07-20T03:51:46;5.53;;;1.95;;
78169;SDS011;67412;49.892;14.490;2023-07-20T03:54:11;6.00;;;1.60;;
78169;SDS011;67412;49.892;14.490;2023-07-20T03:56:36;5.40;;;2.10;;
78169;SDS011;67412;49.892;14.490;2023-07-20T03:59:02;5.72;;;1.88;;
78169;SDS011;67412;49.892;14.490;2023-07-20T04:01:27;5.32;;;1.83;;
78169;SDS011;67412;49.892;14.490;2023-07-20T04:03:52;4.03;;;1.70;;
78169;SDS011;67412;49.892;14.490;2023-07-20T04:06:18;5.25;;;1.73;;
78169;SDS011;67412;49.892;14.490;2023-07-20T04:08:44;6.10;;;2.03;;
78169;SDS011;67412;49.892;14.490;2023-07-20T04:11:09;5.00;;;2.00;;
78169;SDS011;67412;49.892;14.490;2023-07-20T04:13:35;4.88;;;1.80;;
78169;SDS011;67412;49.892;14.490;2023-07-20T04:16:00;4.60;;;1.90;;
78169;SDS011;67412;49.892;14.490;2023-07-20T04:18:25;5.95;;;1.98;;
78169;SDS011;67412;49.892;14.490;2023-07-20T04:20:51;6.22;;;2.00;;
78169;SDS011;67412;49.892;14.490;2023-07-20T04:23:16;5.72;;;2.20;;
78169;SDS011;67412;49.892;14.490;2023-07-20T04:25:42;8.63;;;2.30;;
78169;SDS011;67412;49.892;14.490;2023-07-20T04:28:07;4.72;;;1.90;;
78169;SDS011;67412;49.892;14.490;2023-07-20T04:30:36;5.05;;;2.05;;
78169;SDS011;67412;49.892;14.490;2023-07-20T04:33:03;4.25;;;1.70;;
78169;SDS011;67412;49.892;14.490;2023-07-20T04:35:48;7.07;;;2.15;;
78169;SDS011;67412;49.892;14.490;2023-07-20T04:38:18;5.10;;;1.80;;
78169;SDS011;67412;49.892;14.490;2023-07-20T04:40:48;5.50;;;2.08;;
78169;SDS011;67412;49.892;14.490;2023-07-20T04:43:14;4.70;;;1.80;;
78169;SDS011;67412;49.892;14.490;2023-07-20T04:45:40;5.93;;;2.03;;
78169;SDS011;67412;49.892;14.490;2023-07-20T04:48:07;5.05;;;2.10;;
78169;SDS011;67412;49.892;14.490;2023-07-20T04:50:37;5.80;;;2.05;;
78169;SDS011;67412;49.892;14.490;2023-07-20T04:53:02;6.63;;;2.25;;
78169;SDS011;67412;49.892;14.490;2023-07-20T04:55:28;5.78;;;2.05;;
78169;SDS011;67412;49.892;14.490;2023-07-20T04:57:53;8.68;;;2.00;;
78169;SDS011;67412;49.892;14.490;2023-07-20T05:00:19;5.30;;;1.88;;
78169;SDS011;67412;49.892;14.490;2023-07-20T05:02:44;5.10;;;2.00;;
78169;SDS011;67412;49.892;14.490;2023-07-20T05:05:10;7.18;;;2.10;;
78169;SDS011;67412;49.892;14.490;2023-07-20T05:07:35;6.18;;;2.67;;
78169;SDS011;67412;49.892;14.490;2023-07-20T05:10:00;6.30;;;2.30;;
78169;SDS011;67412;49.892;14.490;2023-07-20T05:12:26;5.68;;;2.00;;
78169;SDS011;67412;49.892;14.490;2023-07-20T05:14:51;5.88;;;1.90;;
78169;SDS011;67412;49.892;14.490;2023-07-20T05:17:16;4.25;;;2.13;;
78169;SDS011;67412;49.892;14.490;2023-07-20T05:19:41;4.88;;;2.00;;
78169;SDS011;67412;49.892;14.490;2023-07-20T05:22:07;5.55;;;1.90;;
78169;SDS011;67412;49.892;14.490;2023-07-20T05:24:32;7.15;;;2.17;;
78169;SDS011;67412;49.892;14.490;2023-07-20T05:26:58;5.13;;;2.17;;
78169;SDS011;67412;49.892;14.490;2023-07-20T05:29:23;6.45;;;1.90;;
78169;SDS011;67412;49.892;14.490;2023-07-20T05:31:49;4.95;;;2.00;;
78169;SDS011;67412;49.892;14.490;2023-07-20T05:34:15;5.60;;;2.00;;
78169;SDS011;67412;49.892;14.490;2023-07-20T05:36:40;5.68;;;2.13;;
78169;SDS011;67412;49.892;14.490;2023-07-20T05:39:06;4.75;;;1.63;;
78169;SDS011;67412;49.892;14.490;2023-07-20T05:41:31;5.07;;;1.77;;
78169;SDS011;67412;49.892;14.490;2023-07-20T05:43:56;4.80;;;2.10;;
78169;SDS011;67412;49.892;14.490;2023-07-20T05:46:22;5.50;;;2.20;;
78169;SDS011;67412;49.892;14.490;2023-07-20T05:48:49;4.43;;;2.10;;
78169;SDS011;67412;49.892;14.490;2023-07-20T05:51:14;5.60;;;1.77;;
78169;SDS011;67412;49.892;14.490;2023-07-20T05:53:40;5.90;;;1.92;;
78169;SDS011;67412;49.892;14.490;2023-07-20T05:56:06;4.90;;;1.95;;
78169;SDS011;67412;49.892;14.490;2023-07-20T05:58:35;4.03;;;1.90;;
78169;SDS011;67412;49.892;14.490;2023-07-20T06:01:00;5.72;;;1.95;;
78169;SDS011;67412;49.892;14.490;2023-07-20T06:03:27;4.75;;;1.70;;
78169;SDS011;67412;49.892;14.490;2023-07-20T06:05:57;6.13;;;2.00;;
78169;SDS011;67412;49.892;14.490;2023-07-20T06:08:24;5.22;;;2.03;;
78169;SDS011;67412;49.892;14.490;2023-07-20T06:10:49;5.57;;;2.00;;
78169;SDS011;67412;49.892;14.490;2023-07-20T06:13:16;6.10;;;1.70;;
78169;SDS011;67412;49.892;14.490;2023-07-20T06:15:42;6.63;;;1.98;;
78169;SDS011;67412;49.892;14.490;2023-07-20T06:18:08;6.40;;;2.13;;
78169;SDS011;67412;49.892;14.490;2023-07-20T06:20:33;5.28;;;2.10;;
78169;SDS011;67412;49.892;14.490;2023-07-20T06:22:58;5.43;;;2.30;;
78169;SDS011;67412;49.892;14.490;2023-07-20T06:25:24;5.07;;;2.08;;
78169;SDS011;67412;49.892;14.490;2023-07-20T06:27:49;5.38;;;1.92;;
78169;SDS011;67412;49.892;14.490;2023-07-20T06:30:18;5.25;;;1.90;;
78169;SDS011;67412;49.892;14.490;2023-07-20T06:32:44;4.25;;;1.73;;
78169;SDS011;67412;49.892;14.490;2023-07-20T06:35:10;4.00;;;1.85;;
78169;SDS011;67412;49.892;14.490;2023-07-20T06:37:35;5.53;;;2.00;;
78169;SDS011;67412;49.892;14.490;2023-07-20T06:40:02;4.65;;;2.10;;
78169;SDS011;67412;49.892;14.490;2023-07-20T06:42:28;5.93;;;2.10;;
78169;SDS011;67412;49.892;14.490;2023-07-20T06:44:54;6.50;;;2.20;;
78169;SDS011;67412;49.892;14.490;2023-07-20T06:47:20;6.13;;;2.03;;
78169;SDS011;67412;49.892;14.490;2023-07-20T06:49:45;6.18;;;1.88;;
78169;SDS011;67412;49.892;14.490;2023-07-20T06:52:10;3.88;;;1.60;;
78169;SDS011;67412;49.892;14.490;2023-07-20T06:54:36;4.05;;;1.70;;
78169;SDS011;67412;49.892;14.490;2023-07-20T06:57:01;6.65;;;2.10;;
78169;SDS011;67412;49.892;14.490;2023-07-20T06:59:27;6.07;;;1.83;;
78169;SDS011;67412;49.892;14.490;2023-07-20T07:01:52;4.43;;;1.95;;
78169;SDS011;67412;49.892;14.490;2023-07-20T07:04:17;5.43;;;1.85;;
78169;SDS011;67412;49.892;14.490;2023-07-20T07:06:43;4.95;;;2.30;;
78169;SDS011;67412;49.892;14.490;2023-07-20T07:09:09;5.57;;;1.75;;
78169;SDS011;67412;49.892;14.490;2023-07-20T07:11:34;5.72;;;1.77;;
78169;SDS011;67412;49.892;14.490;2023-07-20T07:14:00;4.88;;;2.00;;
78169;SDS011;67412;49.892;14.490;2023-07-20T07:16:25;4.47;;;1.48;;
78169;SDS011;67412;49.892;14.490;2023-07-20T07:18:51;4.75;;;1.73;;
78169;SDS011;67412;49.892;14.490;2023-07-20T07:21:16;4.40;;;1.60;;
78169;SDS011;67412;49.892;14.490;2023-07-20T07:23:42;5.20;;;2.10;;
78169;SDS011;67412;49.892;14.490;2023-07-20T07:26:09;8.40;;;1.88;;
78169;SDS011;67412;49.892;14.490;2023-07-20T07:28:34;4.63;;;1.77;;
78169;SDS011;67412;49.892;14.490;2023-07-20T07:31:00;2.75;;;1.30;;
78169;SDS011;67412;49.892;14.490;2023-07-20T07:33:25;5.25;;;2.00;;
78169;SDS011;67412;49.892;14.490;2023-07-20T07:35:51;3.35;;;1.50;;
78169;SDS011;67412;49.892;14.490;2023-07-20T07:38:17;4.28;;;1.80;;
78169;SDS011;67412;49.892;14.490;2023-07-20T07:40:43;4.18;;;1.70;;
78169;SDS011;67412;49.892;14.490;2023-07-20T07:43:08;3.75;;;1.55;;
78169;SDS011;67412;49.892;14.490;2023-07-20T07:45:34;5.20;;;1.80;;
78169;SDS011;67412;49.892;14.490;2023-07-20T07:48:01;4.85;;;1.52;;
78169;SDS011;67412;49.892;14.490;2023-07-20T07:50:27;3.75;;;1.55;;
78169;SDS011;67412;49.892;14.490;2023-07-20T07:52:53;3.63;;;1.50;;
78169;SDS011;67412;49.892;14.490;2023-07-20T07:55:18;3.63;;;1.50;;
78169;SDS011;67412;49.892;14.490;2023-07-20T07:57:44;3.47;;;1.67;;
78169;SDS011;67412;49.892;14.490;2023-07-20T08:00:10;4.90;;;1.60;;
78169;SDS011;67412;49.892;14.490;2023-07-20T08:02:39;4.97;;;1.65;;
78169;SDS011;67412;49.892;14.490;2023-07-20T08:05:05;4.15;;;1.50;;
78169;SDS011;67412;49.892;14.490;2023-07-20T08:07:30;3.83;;;1.52;;
78169;SDS011;67412;49.892;14.490;2023-07-20T08:09:55;3.25;;;1.50;;
78169;SDS011;67412;49.892;14.490;2023-07-20T08:12:21;3.35;;;1.63;;
78169;SDS011;67412;49.892;14.490;2023-07-20T08:14:46;3.90;;;1.42;;
78169;SDS011;67412;49.892;14.490;2023-07-20T08:17:11;3.75;;;1.52;;
78169;SDS011;67412;49.892;14.490;2023-07-20T08:19:37;4.20;;;1.65;;
78169;SDS011;67412;49.892;14.490;2023-07-20T08:22:07;4.97;;;1.60;;
78169;SDS011;67412;49.892;14.490;2023-07-20T08:24:32;3.30;;;1.83;;
78169;SDS011;67412;49.892;14.490;2023-07-20T08:26:58;3.55;;;1.35;;
78169;SDS011;67412;49.892;14.490;2023-07-20T08:29:23;5.72;;;1.70;;
78169;SDS011;67412;49.892;14.490;2023-07-20T08:31:49;6.07;;;1.85;;
78169;SDS011;67412;49.892;14.490;2023-07-20T08:34:14;3.35;;;1.50;;
78169;SDS011;67412;49.892;14.490;2023-07-20T08:36:40;4.53;;;1.60;;
78169;SDS011;67412;49.892;14.490;2023-07-20T08:39:05;4.20;;;2.10;;
78169;SDS011;67412;49.892;14.490;2023-07-20T08:41:33;5.32;;;1.63;;
78169;SDS011;67412;49.892;14.490;2023-07-20T08:44:00;4.35;;;1.77;;
78169;SDS011;67412;49.892;14.490;2023-07-20T08:46:26;3.40;;;1.70;;
78169;SDS011;67412;49.892;14.490;2023-07-20T08:48:53;3.40;;;1.63;;
78169;SDS011;67412;49.892;14.490;2023-07-20T08:53:46;4.07;;;1.40;;
78169;SDS011;67412;49.892;14.490;2023-07-20T08:56:13;3.28;;;1.42;;
78169;SDS011;67412;49.892;14.490;2023-07-20T08:58:41;3.38;;;1.55;;
78169;SDS011;67412;49.892;14.490;2023-07-20T09:01:09;4.90;;;1.50;;
78169;SDS011;67412;49.892;14.490;2023-07-20T09:03:36;2.75;;;1.40;;
78169;SDS011;67412;49.892;14.490;2023-07-20T09:06:04;3.53;;;1.20;;
78169;SDS011;67412;49.892;14.490;2023-07-20T09:08:30;2.65;;;1.10;;
78169;SDS011;67412;49.892;14.490;2023-07-20T09:10:56;4.07;;;1.50;;
78169;SDS011;67412;49.892;14.490;2023-07-20T09:13:21;3.30;;;1.33;;
78169;SDS011;67412;49.892;14.490;2023-07-20T09:15:47;3.63;;;1.40;;
78169;SDS011;67412;49.892;14.490;2023-07-20T09:18:14;4.53;;;1.30;;
78169;SDS011;67412;49.892;14.490;2023-07-20T09:20:48;4.88;;;1.40;;
78169;SDS011;67412;49.892;14.490;2023-07-20T09:23:14;4.55;;;1.40;;
78169;SDS011;67412;49.892;14.490;2023-07-20T09:25:39;2.55;;;1.35;;
78169;SDS011;67412;49.892;14.490;2023-07-20T09:28:05;5.00;;;1.52;;
78169;SDS011;67412;49.892;14.490;2023-07-20T09:30:30;4.03;;;1.20;;
78169;SDS011;67412;49.892;14.490;2023-07-20T09:32:56;4.72;;;1.50;;
78169;SDS011;67412;49.892;14.490;2023-07-20T09:35:21;2.53;;;1.10;;
78169;SDS011;67412;49.892;14.490;2023-07-20T09:40:19;3.40;;;1.30;;
78169;SDS011;67412;49.892;14.490;2023-07-20T09:42:46;2.53;;;1.40;;
78169;SDS011;67412;49.892;14.490;2023-07-20T09:45:12;3.35;;;1.42;;
78169;SDS011;67412;49.892;14.490;2023-07-20T09:47:37;3.97;;;1.40;;
78169;SDS011;67412;49.892;14.490;2023-07-20T09:50:04;3.53;;;1.30;;
78169;SDS011;67412;49.892;14.490;2023-07-20T09:52:35;2.05;;;1.20;;
78169;SDS011;67412;49.892;14.490;2023-07-20T09:55:03;3.35;;;1.33;;
78169;SDS011;67412;49.892;14.490;2023-07-20T09:57:28;4.22;;;1.15;;
78169;SDS011;67412;49.892;14.490;2023-07-20T09:59:54;7.32;;;2.60;;
78169;SDS011;67412;49.892;14.490;2023-07-20T10:02:20;3.53;;;1.40;;
78169;SDS011;67412;49.892;14.490;2023-07-20T10:04:49;2.67;;;1.38;;
78169;SDS011;67412;49.892;14.490;2023-07-20T10:07:19;3.65;;;1.17;;
78169;SDS011;67412;49.892;14.490;2023-07-20T10:09:47;3.28;;;1.20;;
78169;SDS011;67412;49.892;14.490;2023-07-20T10:12:13;3.63;;;1.20;;
78169;SDS011;67412;49.892;14.490;2023-07-20T10:14:40;2.47;;;1.13;;
78169;SDS011;67412;49.892;14.490;2023-07-20T10:17:11;2.10;;;1.10;;
78169;SDS011;67412;49.892;14.490;2023-07-20T10:22:17;2.95;;;1.27;;
78169;SDS011;67412;49.892;14.490;2023-07-20T10:24:47;2.40;;;1.15;;
78169;SDS011;67412;49.892;14.490;2023-07-20T10:27:13;1.27;;;1.00;;
78169;SDS011;67412;49.892;14.490;2023-07-20T10:29:40;3.10;;;1.25;;
78169;SDS011;67412;49.892;14.490;2023-07-20T10:32:06;1.95;;;1.13;;
78169;SDS011;67412;49.892;14.490;2023-07-20T10:34:33;3.30;;;1.15;;
78169;SDS011;67412;49.892;14.490;2023-07-20T10:36:59;3.85;;;1.30;;
78169;SDS011;67412;49.892;14.490;2023-07-20T10:39:25;4.10;;;1.20;;
78169;SDS011;67412;49.892;14.490;2023-07-20T10:42:08;2.30;;;0.95;;
78169;SDS011;67412;49.892;14.490;2023-07-20T10:44:36;3.22;;;1.30;;
78169;SDS011;67412;49.892;14.490;2023-07-20T10:47:03;4.85;;;1.33;;
78169;SDS011;67412;49.892;14.490;2023-07-20T10:49:34;3.55;;;1.83;;
78169;SDS011;67412;49.892;14.490;2023-07-20T10:52:03;4.95;;;1.30;;
78169;SDS011;67412;49.892;14.490;2023-07-20T10:56:56;3.75;;;1.33;;
78169;SDS011;67412;49.892;14.490;2023-07-20T11:01:47;2.77;;;1.10;;
78169;SDS011;67412;49.892;14.490;2023-07-20T11:04:16;3.10;;;1.20;;
78169;SDS011;67412;49.892;14.490;2023-07-20T11:06:45;2.47;;;1.20;;
78169;SDS011;67412;49.892;14.490;2023-07-20T11:09:12;2.58;;;1.20;;
78169;SDS011;67412;49.892;14.490;2023-07-20T11:11:42;2.33;;;1.30;;
78169;SDS011;67412;49.892;14.490;2023-07-20T11:14:25;4.00;;;1.30;;
78169;SDS011;67412;49.892;14.490;2023-07-20T11:16:51;2.92;;;1.30;;
78169;SDS011;67412;49.892;14.490;2023-07-20T11:21:55;5.20;;;1.30;;
78169;SDS011;67412;49.892;14.490;2023-07-20T11:24:22;5.93;;;1.20;;
78169;SDS011;67412;49.892;14.490;2023-07-20T11:31:44;4.25;;;1.40;;
78169;SDS011;67412;49.892;14.490;2023-07-20T11:34:11;4.72;;;1.38;;
78169;SDS011;67412;49.892;14.490;2023-07-20T11:36:42;4.88;;;1.60;;
78169;SDS011;67412;49.892;14.490;2023-07-20T11:39:09;5.43;;;1.50;;
78169;SDS011;67412;49.892;14.490;2023-07-20T11:41:35;4.28;;;1.60;;
78169;SDS011;67412;49.892;14.490;2023-07-20T11:44:01;3.72;;;1.50;;
78169;SDS011;67412;49.892;14.490;2023-07-20T11:46:27;4.82;;;1.42;;
78169;SDS011;67412;49.892;14.490;2023-07-20T11:48:57;4.13;;;1.20;;
78169;SDS011;67412;49.892;14.490;2023-07-20T11:51:29;4.55;;;1.58;;
78169;SDS011;67412;49.892;14.490;2023-07-20T11:53:55;3.72;;;1.52;;
78169;SDS011;67412;49.892;14.490;2023-07-20T11:56:24;2.65;;;1.40;;
78169;SDS011;67412;49.892;14.490;2023-07-20T11:58:54;4.70;;;1.40;;
78169;SDS011;67412;49.892;14.490;2023-07-20T12:01:21;2.88;;;1.30;;
78169;SDS011;67412;49.892;14.490;2023-07-20T12:03:47;2.58;;;1.40;;
78169;SDS011;67412;49.892;14.490;2023-07-20T12:06:13;3.38;;;1.23;;
78169;SDS011;67412;49.892;14.490;2023-07-20T12:08:39;3.00;;;1.33;;
78169;SDS011;67412;49.892;14.490;2023-07-20T12:11:05;5.28;;;1.55;;
78169;SDS011;67412;49.892;14.490;2023-07-20T12:13:44;3.35;;;1.35;;
78169;SDS011;67412;49.892;14.490;2023-07-20T12:16:19;4.40;;;1.30;;
78169;SDS011;67412;49.892;14.490;2023-07-20T12:18:45;4.53;;;1.40;;
78169;SDS011;67412;49.892;14.490;2023-07-20T12:21:10;3.97;;;1.38;;
78169;SDS011;67412;49.892;14.490;2023-07-20T12:23:39;4.03;;;1.38;;
78169;SDS011;67412;49.892;14.490;2023-07-20T12:26:06;5.03;;;1.80;;
78169;SDS011;67412;49.892;14.490;2023-07-20T12:28:33;4.15;;;1.27;;
78169;SDS011;67412;49.892;14.490;2023-07-20T12:31:04;2.80;;;1.48;;
78169;SDS011;67412;49.892;14.490;2023-07-20T12:33:29;2.63;;;0.87;;
78169;SDS011;67412;49.892;14.490;2023-07-20T12:35:55;4.55;;;1.60;;
78169;SDS011;67412;49.892;14.490;2023-07-20T12:38:23;4.75;;;1.30;;
78169;SDS011;67412;49.892;14.490;2023-07-20T12:40:48;3.42;;;1.23;;
78169;SDS011;67412;49.892;14.490;2023-07-20T12:43:14;3.90;;;1.00;;
78169;SDS011;67412;49.892;14.490;2023-07-20T12:45:39;3.77;;;1.10;;
78169;SDS011;67412;49.892;14.490;2023-07-20T12:48:05;2.88;;;1.20;;
78169;SDS011;67412;49.892;14.490;2023-07-20T12:50:31;2.13;;;0.93;;
78169;SDS011;67412;49.892;14.490;2023-07-20T12:52:56;2.85;;;1.00;;
78169;SDS011;67412;49.892;14.490;2023-07-20T12:55:21;3.75;;;1.20;;
78169;SDS011;67412;49.892;14.490;2023-07-20T12:57:47;4.60;;;1.23;;
78169;SDS011;67412;49.892;14.490;2023-07-20T13:00:13;2.83;;;0.95;;
78169;SDS011;67412;49.892;14.490;2023-07-20T13:02:39;2.13;;;1.10;;
78169;SDS011;67412;49.892;14.490;2023-07-20T13:05:06;2.13;;;1.05;;
78169;SDS011;67412;49.892;14.490;2023-07-20T13:10:02;3.05;;;1.10;;
78169;SDS011;67412;49.892;14.490;2023-07-20T13:12:29;1.55;;;0.75;;
78169;SDS011;67412;49.892;14.490;2023-07-20T13:14:55;1.88;;;0.90;;
78169;SDS011;67412;49.892;14.490;2023-07-20T13:17:22;2.22;;;1.10;;
78169;SDS011;67412;49.892;14.490;2023-07-20T13:19:48;3.75;;;1.13;;
78169;SDS011;67412;49.892;14.490;2023-07-20T13:22:13;2.55;;;0.95;;
78169;SDS011;67412;49.892;14.490;2023-07-20T13:24:39;2.35;;;1.30;;
78169;SDS011;67412;49.892;14.490;2023-07-20T13:27:05;4.15;;;1.40;;
78169;SDS011;67412;49.892;14.490;2023-07-20T13:29:31;3.25;;;1.15;;
78169;SDS011;67412;49.892;14.490;2023-07-20T13:31:57;2.42;;;1.20;;
78169;SDS011;67412;49.892;14.490;2023-07-20T13:34:22;1.60;;;1.00;;
78169;SDS011;67412;49.892;14.490;2023-07-20T13:36:48;3.42;;;1.20;;
78169;SDS011;67412;49.892;14.490;2023-07-20T13:39:14;2.42;;;1.25;;
78169;SDS011;67412;49.892;14.490;2023-07-20T13:41:39;3.35;;;1.13;;
78169;SDS011;67412;49.892;14.490;2023-07-20T13:44:05;2.60;;;1.02;;
78169;SDS011;67412;49.892;14.490;2023-07-20T13:46:30;4.22;;;1.23;;
78169;SDS011;67412;49.892;14.490;2023-07-20T13:48:55;3.00;;;1.00;;
78169;SDS011;67412;49.892;14.490;2023-07-20T13:51:21;2.15;;;1.10;;
78169;SDS011;67412;49.892;14.490;2023-07-20T13:53:47;3.22;;;1.10;;
78169;SDS011;67412;49.892;14.490;2023-07-20T13:56:12;4.72;;;1.55;;
78169;SDS011;67412;49.892;14.490;2023-07-20T13:58:38;3.17;;;1.30;;
78169;SDS011;67412;49.892;14.490;2023-07-20T14:01:03;3.57;;;1.20;;
78169;SDS011;67412;49.892;14.490;2023-07-20T14:03:29;2.83;;;1.30;;
78169;SDS011;67412;49.892;14.490;2023-07-20T14:05:54;3.33;;;1.27;;
78169;SDS011;67412;49.892;14.490;2023-07-20T14:08:20;1.73;;;1.10;;
78169;SDS011;67412;49.892;14.490;2023-07-20T14:10:46;2.42;;;1.20;;
78169;SDS011;67412;49.892;14.490;2023-07-20T14:13:11;3.13;;;1.45;;
78169;SDS011;67412;49.892;14.490;2023-07-20T14:15:37;2.72;;;1.17;;
78169;SDS011;67412;49.892;14.490;2023-07-20T14:18:03;3.08;;;1.02;;
78169;SDS011;67412;49.892;14.490;2023-07-20T14:20:28;3.70;;;1.25;;
78169;SDS011;67412;49.892;14.490;2023-07-20T14:22:54;3.13;;;1.10;;
78169;SDS011;67412;49.892;14.490;2023-07-20T14:25:19;4.07;;;1.20;;
78169;SDS011;67412;49.892;14.490;2023-07-20T14:27:44;4.38;;;1.15;;
78169;SDS011;67412;49.892;14.490;2023-07-20T14:30:10;3.15;;;1.38;;
78169;SDS011;67412;49.892;14.490;2023-07-20T14:32:35;2.83;;;1.00;;
78169;SDS011;67412;49.892;14.490;2023-07-20T14:35:01;3.80;;;1.10;;
78169;SDS011;67412;49.892;14.490;2023-07-20T14:37:26;2.22;;;0.93;;
78169;SDS011;67412;49.892;14.490;2023-07-20T14:39:51;3.17;;;1.10;;
78169;SDS011;67412;49.892;14.490;2023-07-20T14:42:17;3.22;;;1.20;;
78169;SDS011;67412;49.892;14.490;2023-07-20T14:44:43;2.40;;;1.30;;
78169;SDS011;67412;49.892;14.490;2023-07-20T14:47:09;4.15;;;1.30;;
78169;SDS011;67412;49.892;14.490;2023-07-20T14:49:34;3.70;;;1.30;;
78169;SDS011;67412;49.892;14.490;2023-07-20T14:51:59;2.53;;;1.30;;
78169;SDS011;67412;49.892;14.490;2023-07-20T14:54:24;3.45;;;1.17;;
78169;SDS011;67412;49.892;14.490;2023-07-20T14:56:50;4.13;;;1.38;;
78169;SDS011;67412;49.892;14.490;2023-07-20T14:59:17;2.80;;;1.40;;
78169;SDS011;67412;49.892;14.490;2023-07-20T15:01:43;3.33;;;1.30;;
78169;SDS011;67412;49.892;14.490;2023-07-20T15:04:12;4.22;;;1.40;;